createdAt,value
2018-12-03T08:53:20.127Z,5.80
2018-12-03T09:32:06.342Z,4.30
2018-12-03T10:13:44.875Z,11.50
2018-12-03T10:16:15.828Z,11.50
2018-12-03T10:18:48.130Z,10.10
2018-12-03T10:21:17.504Z,8.50
2018-12-03T10:23:46.843Z,7.60
2018-12-03T10:29:25.632Z,6.80
2018-12-03T10:31:53.991Z,6.50
2018-12-03T10:39:39.393Z,6.10
2018-12-03T10:42:12.825Z,6.00
2018-12-03T10:44:41.848Z,6.10
2018-12-03T10:47:11.933Z,6.30
2018-12-03T10:49:44.207Z,6.30
2018-12-03T10:52:31.296Z,6.10
2018-12-03T10:54:59.670Z,5.90
2018-12-03T10:57:32.687Z,6.00
2018-12-03T11:00:04.221Z,6.00
2018-12-03T11:02:39.676Z,5.90
2018-12-03T11:05:14.312Z,6.10
2018-12-03T11:07:43.432Z,6.20
2018-12-03T11:10:13.332Z,6.40
2018-12-03T11:12:46.208Z,6.60
2018-12-03T11:15:16.807Z,6.60
2018-12-03T11:20:22.912Z,6.70
2018-12-03T11:25:37.735Z,6.80
2018-12-03T11:28:12.759Z,7.30
2018-12-03T11:30:49.575Z,7.70
2018-12-03T11:33:23.664Z,8.10
2018-12-03T11:35:56.511Z,8.30
2018-12-03T11:38:35.946Z,8.20
2018-12-03T11:41:06.126Z,8.20
2018-12-03T11:43:35.782Z,8.50
2018-12-03T11:46:06.429Z,8.70
2018-12-03T11:48:35.785Z,8.80
2018-12-03T11:51:05.312Z,8.90
2018-12-03T11:53:33.679Z,9.00
2018-12-03T11:56:02.948Z,9.10
2018-12-03T11:58:31.051Z,9.10
2018-12-03T12:03:42.877Z,9.10
2018-12-03T12:06:12.264Z,9.30
2018-12-03T12:08:42.386Z,9.30
2018-12-03T12:11:14.732Z,9.20
2018-12-03T12:13:43.529Z,9.00
2018-12-03T12:16:12.260Z,8.80
2018-12-03T12:18:47.203Z,8.70
2018-12-03T12:21:16.055Z,8.60
2018-12-03T12:23:46.282Z,8.60
2018-12-03T12:26:15.541Z,8.80
2018-12-03T12:28:47.435Z,8.80
2018-12-03T12:31:17.740Z,8.90
2018-12-03T12:33:46.268Z,9.10
2018-12-03T12:36:15.723Z,9.20
2018-12-03T12:38:46.697Z,9.50
2018-12-03T12:41:17.807Z,9.50
2018-12-03T12:43:50.760Z,9.60
2018-12-03T12:46:22.599Z,9.50
2018-12-03T12:48:52.603Z,9.60
2018-12-03T12:51:22.815Z,9.90
2018-12-03T12:53:51.873Z,10.00
2018-12-03T12:56:21.915Z,10.00
2018-12-03T12:58:51.030Z,10.10
2018-12-03T13:01:20.804Z,10.10
2018-12-03T13:03:51.807Z,10.10
2018-12-03T13:06:25.294Z,10.00
2018-12-03T13:08:57.506Z,9.90
2018-12-03T13:11:26.338Z,10.10
2018-12-03T13:13:57.818Z,10.30
2018-12-03T13:16:28.394Z,10.30
2018-12-03T13:18:59.743Z,10.40
2018-12-03T13:21:32.204Z,10.40
2018-12-03T13:24:01.442Z,10.50
2018-12-03T13:26:32.781Z,10.60
2018-12-03T13:29:03.567Z,10.60
2018-12-03T13:31:33.711Z,10.50
2018-12-03T13:34:02.218Z,10.50
2018-12-03T13:36:31.278Z,10.40
2018-12-03T13:39:01.231Z,10.40
2018-12-03T13:44:14.059Z,10.60
2018-12-03T13:46:43.244Z,10.70
2018-12-03T13:49:13.786Z,10.70
2018-12-03T13:51:43.099Z,10.70
2018-12-03T13:54:14.347Z,10.80
2018-12-03T13:56:44.007Z,10.80
2018-12-03T13:59:14.010Z,10.60
2018-12-03T14:01:42.452Z,10.40
2018-12-03T14:04:13.730Z,10.10
2018-12-03T14:06:50.578Z,10.00
2018-12-03T14:09:31.297Z,9.80
2018-12-03T14:12:10.119Z,9.60
2018-12-03T14:14:53.189Z,9.60
2018-12-03T14:17:29.041Z,9.50
2018-12-03T14:19:59.381Z,9.40
2018-12-03T14:22:46.064Z,9.20
2018-12-03T14:25:15.702Z,9.20
2018-12-03T14:27:45.012Z,9.10
2018-12-03T14:30:13.946Z,9.00
2018-12-03T14:32:43.837Z,8.90
2018-12-03T14:35:13.497Z,8.80
2018-12-03T14:37:42.407Z,8.60
2018-12-03T14:40:12.284Z,8.50
2018-12-03T14:42:42.108Z,8.40
2018-12-03T14:45:11.647Z,8.60
2018-12-03T14:47:41.091Z,8.50
2018-12-03T14:50:10.711Z,8.50
2018-12-03T14:52:45.250Z,8.40
2018-12-03T14:55:14.384Z,8.50
2018-12-03T14:57:43.783Z,8.30
2018-12-03T15:00:15.931Z,8.20
2018-12-03T15:02:45.931Z,8.20
2018-12-03T15:05:15.637Z,8.00
2018-12-03T15:07:54.873Z,8.30
2018-12-03T15:10:24.595Z,8.40
2018-12-03T15:12:55.911Z,8.00
2018-12-03T15:15:25.375Z,7.70
2018-12-03T15:17:55.893Z,7.60
2018-12-03T15:20:25.162Z,7.20
2018-12-03T15:25:30.954Z,7.20
2018-12-03T15:27:59.721Z,7.20
2018-12-03T15:30:31.265Z,7.40
2018-12-03T15:33:00.653Z,7.50
2018-12-03T15:35:30.244Z,7.40
2018-12-03T15:38:08.715Z,7.20
2018-12-03T15:40:43.112Z,7.10
2018-12-03T15:43:12.222Z,6.90
2018-12-03T15:45:43.597Z,7.00
2018-12-03T15:48:12.039Z,7.00
2018-12-03T15:50:41.467Z,7.00
2018-12-03T15:53:27.266Z,7.10
2018-12-03T15:55:57.655Z,7.00
2018-12-03T15:58:28.476Z,6.80
2018-12-03T16:00:57.532Z,6.70
2018-12-03T16:03:26.384Z,6.60
2018-12-03T16:05:59.791Z,6.60
2018-12-03T16:08:36.674Z,6.70
2018-12-03T16:11:08.622Z,6.70
2018-12-03T16:13:39.446Z,6.70
2018-12-03T16:16:09.410Z,6.50
2018-12-03T16:18:39.987Z,6.50
2018-12-03T16:21:09.611Z,6.40
2018-12-03T16:23:38.213Z,6.40
2018-12-03T16:26:08.366Z,6.50
2018-12-03T16:28:38.517Z,6.50
2018-12-03T16:31:06.871Z,6.60
2018-12-03T16:33:35.753Z,6.60
2018-12-03T16:36:05.610Z,6.80
2018-12-03T16:41:17.823Z,6.80
2018-12-03T16:43:47.253Z,6.80
2018-12-03T16:46:17.924Z,6.80
2018-12-03T16:48:50.740Z,6.90
2018-12-03T16:51:19.102Z,7.00
2018-12-03T16:56:27.568Z,6.90
2018-12-03T16:58:57.908Z,7.00
2018-12-03T17:01:27.778Z,7.00
2018-12-03T17:03:57.201Z,6.90
2018-12-03T17:06:29.536Z,7.00
2018-12-03T17:09:08.397Z,7.00
2018-12-03T17:11:37.855Z,7.00
2018-12-03T17:14:09.965Z,7.00
2018-12-03T17:16:39.062Z,7.00
2018-12-03T17:19:08.675Z,7.10
2018-12-03T17:22:09.571Z,7.10
2018-12-03T17:24:41.092Z,7.00
2018-12-03T17:27:10.943Z,7.10
2018-12-03T17:29:40.338Z,7.10
2018-12-03T17:34:50.819Z,7.10
2018-12-03T17:37:23.222Z,7.20
2018-12-03T17:39:59.453Z,7.20
2018-12-03T17:42:28.026Z,7.20
2018-12-03T17:44:57.811Z,7.20
2018-12-03T17:47:34.022Z,7.30
2018-12-03T17:50:07.348Z,7.30
2018-12-03T17:55:26.838Z,7.20
2018-12-03T17:58:00.128Z,7.10
2018-12-03T18:00:32.196Z,7.20
2018-12-03T18:03:08.484Z,7.20
2018-12-03T18:05:39.821Z,7.20
2018-12-03T18:08:15.247Z,7.20
2018-12-03T18:10:44.633Z,7.20
2018-12-03T18:13:14.975Z,7.30
2018-12-03T18:15:43.739Z,7.40
2018-12-03T18:18:17.103Z,7.40
2018-12-03T18:20:45.646Z,7.50
2018-12-03T18:23:17.954Z,7.30
2018-12-03T18:25:48.838Z,7.40
2018-12-03T18:28:20.516Z,7.30
2018-12-03T18:30:51.178Z,7.40
2018-12-03T18:33:28.741Z,7.30
2018-12-03T18:38:33.589Z,7.20
2018-12-03T18:41:03.507Z,7.20
2018-12-03T18:43:35.017Z,7.20
2018-12-03T18:46:12.545Z,7.10
2018-12-03T18:48:43.654Z,7.10
2018-12-03T18:51:13.973Z,7.10
2018-12-03T18:54:00.621Z,7.00
2018-12-03T18:59:29.564Z,6.80
2018-12-03T19:01:59.576Z,6.70
2018-12-03T19:04:29.611Z,6.70
2018-12-03T19:06:58.650Z,6.60
2018-12-03T19:09:28.596Z,6.60
2018-12-03T19:14:39.647Z,6.80
2018-12-03T19:17:19.399Z,6.80
2018-12-03T19:19:49.320Z,6.80
2018-12-03T19:22:24.059Z,7.00
2018-12-03T19:24:53.662Z,7.10
2018-12-03T19:30:05.327Z,7.40
2018-12-03T19:32:34.629Z,7.50
2018-12-03T19:35:10.959Z,7.60
2018-12-03T19:37:46.879Z,7.60
2018-12-03T19:40:16.430Z,7.60
2018-12-03T19:42:51.290Z,7.80
2018-12-03T19:45:19.860Z,7.90
2018-12-03T19:50:29.092Z,7.70
2018-12-03T19:55:48.646Z,7.10
2018-12-03T19:58:33.206Z,7.10
2018-12-03T20:01:03.732Z,7.40
2018-12-03T20:03:37.020Z,7.60
2018-12-03T20:06:20.983Z,7.70
2018-12-03T20:08:59.617Z,7.80
2018-12-03T20:11:28.810Z,7.70
2018-12-03T20:14:01.807Z,7.70
2018-12-03T20:16:41.919Z,7.80
2018-12-03T20:19:13.998Z,7.80
2018-12-03T20:21:52.550Z,7.70
2018-12-03T20:24:24.134Z,7.50
2018-12-03T20:27:07.480Z,7.50
2018-12-03T20:29:47.443Z,7.40
2018-12-03T20:35:15.814Z,7.50
2018-12-03T20:38:31.946Z,7.50
2018-12-03T20:41:07.524Z,7.60
2018-12-03T20:43:42.211Z,7.60
2018-12-03T20:46:57.608Z,7.60
2018-12-03T20:49:42.562Z,7.60
2018-12-03T20:52:30.191Z,7.50
2018-12-03T20:55:08.648Z,7.40
2018-12-03T20:57:39.504Z,7.30
2018-12-03T21:00:11.785Z,7.20
2018-12-03T21:02:47.984Z,7.30
2018-12-03T21:05:28.542Z,7.40
2018-12-03T21:08:04.150Z,7.30
2018-12-03T21:10:39.846Z,7.30
2018-12-03T21:15:46.526Z,7.40
2018-12-03T21:18:17.164Z,7.40
2018-12-03T21:20:52.777Z,7.40
2018-12-03T21:26:19.372Z,7.30
2018-12-03T21:28:49.698Z,7.30
2018-12-03T21:31:22.128Z,7.20
2018-12-03T21:33:54.568Z,7.30
2018-12-03T21:36:26.233Z,7.30
2018-12-03T21:38:57.166Z,7.30
2018-12-03T21:41:30.160Z,7.30
2018-12-03T21:43:59.911Z,7.40
2018-12-03T21:46:32.200Z,7.30
2018-12-03T21:49:06.512Z,7.30
2018-12-03T21:51:37.972Z,7.20
2018-12-03T21:54:11.362Z,7.10
2018-12-03T21:56:48.062Z,7.00
2018-12-03T21:59:18.316Z,7.10
2018-12-03T22:01:48.143Z,7.10
2018-12-03T22:04:17.531Z,7.10
2018-12-03T22:06:49.379Z,7.00
2018-12-03T22:09:17.893Z,6.80
2018-12-03T22:11:46.086Z,6.80
2018-12-03T22:14:17.273Z,6.80
2018-12-03T22:16:45.670Z,6.80
2018-12-03T22:19:16.404Z,6.70
2018-12-03T22:21:45.379Z,6.50
2018-12-03T22:24:19.195Z,6.40
2018-12-03T22:26:48.341Z,6.20
2018-12-03T22:29:17.922Z,6.30
2018-12-03T22:31:46.884Z,6.30
2018-12-03T22:34:15.070Z,6.40
2018-12-03T22:36:44.628Z,6.50
2018-12-03T22:39:23.969Z,6.50
2018-12-03T22:41:52.696Z,6.60
2018-12-03T22:44:24.047Z,6.50
2018-12-03T22:46:52.123Z,6.30
2018-12-03T22:49:23.640Z,6.30
2018-12-03T22:51:52.211Z,6.40
2018-12-03T22:54:22.219Z,6.40
2018-12-03T22:56:51.740Z,6.50
2018-12-03T22:59:21.777Z,6.60
2018-12-03T23:01:50.298Z,6.50
2018-12-03T23:04:20.387Z,6.60
2018-12-03T23:06:49.994Z,6.60
2018-12-03T23:09:23.448Z,6.70
2018-12-03T23:11:54.327Z,6.70
2018-12-03T23:14:23.078Z,6.80
2018-12-03T23:16:52.698Z,6.70
2018-12-03T23:19:20.681Z,6.80
2018-12-03T23:21:50.171Z,6.90
2018-12-03T23:24:18.766Z,7.00
2018-12-03T23:26:48.807Z,7.00
2018-12-03T23:29:18.068Z,7.20
2018-12-03T23:31:47.153Z,7.30
2018-12-03T23:34:15.735Z,7.30
2018-12-03T23:36:43.902Z,7.10
2018-12-03T23:39:13.247Z,7.10
2018-12-03T23:41:42.886Z,7.20
2018-12-03T23:44:11.544Z,7.30
2018-12-03T23:46:39.929Z,7.40
2018-12-03T23:49:08.464Z,7.60
2018-12-03T23:51:37.281Z,7.70
2018-12-03T23:54:05.425Z,7.60
2018-12-03T23:56:33.783Z,7.60
2018-12-03T23:59:01.962Z,7.70
